Time;durP1;ratioP1;P1;durP2;ratioP2;P2;SDS_P1;SDS_P2;PMS_P1;PMS_P2;Temp;Humidity;BMP_temperature;BMP_pressure;BME280_temperature;BME280_humidity;BME280_pressure;Samples;Min_cycle;Max_cycle;Signal;HPM_P1;HPM_P2
2022/05/25 00:00:43;;;;;;;1.92;0.90;;;16.00;58.40;;;;;;5050055;28;20292;-61
2022/05/25 00:03:14;;;;;;;2.28;1.38;;;16.00;58.40;;;;;;5047644;28;20276;-61
2022/05/25 00:05:45;;;;;;;1.60;1.25;;;16.00;58.30;;;;;;5049568;28;20203;-62
2022/05/25 00:08:17;;;;;;;0.93;0.90;;;16.10;58.30;;;;;;5049159;28;20192;-61
2022/05/25 00:10:48;;;;;;;1.98;1.17;;;16.10;58.40;;;;;;5049857;28;20204;-61
2022/05/25 00:13:18;;;;;;;1.92;1.10;;;16.10;58.30;;;;;;5048277;28;20258;-61
2022/05/25 00:15:52;;;;;;;1.15;1.05;;;16.10;58.30;;;;;;5048842;28;20219;-61
2022/05/25 00:18:23;;;;;;;1.55;1.02;;;16.20;58.30;;;;;;5049818;28;20203;-60
2022/05/25 00:20:52;;;;;;;1.95;1.15;;;16.20;58.30;;;;;;5049473;28;20230;-61
2022/05/25 00:23:25;;;;;;;1.50;1.27;;;16.20;58.20;;;;;;5049287;28;20246;-60
2022/05/25 00:25:55;;;;;;;2.42;1.30;;;16.20;58.20;;;;;;5049090;28;20203;-62
2022/05/25 00:28:26;;;;;;;2.33;1.30;;;16.30;58.20;;;;;;5049289;28;20204;-62
2022/05/25 00:30:57;;;;;;;1.83;1.15;;;16.30;58.20;;;;;;5049456;28;20204;-61
2022/05/25 00:33:27;;;;;;;1.77;1.20;;;16.30;58.20;;;;;;5049380;28;20257;-60
2022/05/25 00:35:58;;;;;;;2.13;1.40;;;16.40;58.30;;;;;;5049165;28;20255;-61
2022/05/25 00:38:30;;;;;;;1.58;1.40;;;16.40;58.60;;;;;;5048810;28;20192;-61
2022/05/25 00:41:01;;;;;;;1.80;1.50;;;16.40;58.80;;;;;;5049412;28;20203;-61
2022/05/25 00:43:31;;;;;;;2.25;1.50;;;16.50;58.80;;;;;;5048741;28;20317;-61
2022/05/25 00:46:07;;;;;;;2.35;1.40;;;16.50;58.70;;;;;;5049739;28;20200;-61
2022/05/25 00:48:41;;;;;;;1.73;1.42;;;16.50;58.70;;;;;;5049155;28;20261;-62
2022/05/25 00:51:21;;;;;;;4.60;1.30;;;16.50;58.70;;;;;;5048006;28;20269;-61
2022/05/25 00:53:58;;;;;;;1.33;1.15;;;16.50;58.60;;;;;;5048957;28;20332;-63
2022/05/25 00:56:31;;;;;;;1.83;1.13;;;16.60;58.60;;;;;;5048858;28;20213;-61
2022/05/25 00:59:06;;;;;;;1.95;1.20;;;16.60;58.60;;;;;;5049828;28;20199;-61
2022/05/25 01:01:37;;;;;;;1.60;1.45;;;16.60;58.50;;;;;;5048540;28;20187;-60
2022/05/25 01:04:08;;;;;;;1.52;1.33;;;16.60;58.60;;;;;;5048707;28;20216;-60
2022/05/25 01:06:52;;;;;;;2.05;1.45;;;16.70;58.50;;;;;;5048595;28;20195;-61
2022/05/25 01:09:34;;;;;;;1.90;1.33;;;16.70;58.40;;;;;;5046655;28;20196;-61
2022/05/25 01:12:14;;;;;;;1.73;1.50;;;16.70;58.40;;;;;;5044479;28;20260;-61
2022/05/25 01:14:59;;;;;;;1.92;1.17;;;16.70;58.30;;;;;;5048920;28;20211;-62
2022/05/25 01:17:37;;;;;;;1.42;1.13;;;16.80;58.40;;;;;;5048903;28;20217;-61
2022/05/25 01:20:20;;;;;;;2.05;1.10;;;16.80;58.30;;;;;;5049132;28;20237;-61
2022/05/25 01:23:18;;;;;;;1.73;1.17;;;16.80;58.30;;;;;;5048109;28;20227;-61
2022/05/25 01:26:27;;;;;;;2.20;1.30;;;16.90;58.40;;;;;;5047824;28;20253;-61
2022/05/25 01:29:20;;;;;;;1.70;1.38;;;16.90;58.30;;;;;;5047783;28;20258;-61
2022/05/25 01:31:58;;;;;;;1.80;1.10;;;16.90;58.30;;;;;;5047165;28;20249;-60
2022/05/25 01:34:36;;;;;;;2.40;1.45;;;16.90;58.30;;;;;;5047801;28;20223;-60
2022/05/25 01:37:11;;;;;;;2.65;1.40;;;16.90;58.80;;;;;;5046226;28;20188;-60
2022/05/25 01:39:46;;;;;;;1.55;1.40;;;17.00;58.20;;;;;;5046872;28;20276;-61
2022/05/25 01:42:23;;;;;;;2.38;1.45;;;17.00;58.20;;;;;;5047919;28;20195;-61
2022/05/25 01:44:59;;;;;;;1.35;0.95;;;17.00;58.20;;;;;;5047636;28;20308;-62
2022/05/25 01:47:33;;;;;;;2.28;1.20;;;17.00;58.10;;;;;;5048162;28;20195;-61
2022/05/25 01:50:07;;;;;;;2.35;1.40;;;17.00;58.00;;;;;;5048027;28;20225;-61
2022/05/25 01:52:42;;;;;;;1.85;1.08;;;17.10;58.00;;;;;;5047947;28;20533;-61
2022/05/25 01:55:19;;;;;;;1.67;1.17;;;17.10;58.00;;;;;;5047611;28;20316;-61
2022/05/25 01:57:53;;;;;;;1.38;1.10;;;17.10;57.90;;;;;;5048652;28;20199;-61
2022/05/25 02:00:32;;;;;;;1.27;1.05;;;17.20;58.00;;;;;;5048833;28;20749;-61
2022/05/25 02:06:11;;;;;;;1.58;1.17;;;17.20;57.90;;;;;;5048803;28;20586;-60
2022/05/25 02:08:56;;;;;;;2.85;1.35;;;17.20;57.80;;;;;;5048042;28;20200;-60
2022/05/25 02:11:35;;;;;;;1.85;0.95;;;17.30;57.80;;;;;;5046942;28;20195;-60
2022/05/25 02:14:12;;;;;;;1.55;1.00;;;17.30;57.80;;;;;;5046233;28;20215;-60
2022/05/25 02:16:53;;;;;;;1.60;1.13;;;17.30;57.70;;;;;;5047946;28;20391;-60
2022/05/25 02:19:28;;;;;;;1.50;1.00;;;17.30;57.70;;;;;;5048083;28;20241;-61
2022/05/25 02:22:03;;;;;;;1.63;1.23;;;17.40;57.70;;;;;;5047905;28;20195;-61
2022/05/25 02:24:37;;;;;;;1.45;1.20;;;17.40;57.60;;;;;;5047451;28;20280;-60
2022/05/25 02:27:12;;;;;;;2.47;1.30;;;17.40;57.60;;;;;;5048114;28;20253;-59
2022/05/25 02:29:45;;;;;;;2.33;1.08;;;17.40;57.50;;;;;;5044554;28;20195;-60
2022/05/25 02:32:19;;;;;;;1.15;1.00;;;17.50;57.50;;;;;;5048309;28;21244;-60
2022/05/25 02:34:54;;;;;;;1.65;1.10;;;17.50;57.50;;;;;;5047583;28;20316;-60
2022/05/25 02:37:27;;;;;;;1.63;1.00;;;17.50;57.50;;;;;;5047994;28;20273;-61
2022/05/25 02:39:58;;;;;;;2.28;1.33;;;17.50;57.40;;;;;;5048546;28;20191;-60
2022/05/25 02:42:29;;;;;;;1.50;1.10;;;17.50;57.40;;;;;;5047558;28;20206;-61
2022/05/25 02:44:59;;;;;;;2.05;1.17;;;17.60;57.40;;;;;;5047903;28;20251;-61
2022/05/25 02:47:30;;;;;;;1.38;1.20;;;17.60;57.40;;;;;;5050586;28;20204;-61
2022/05/25 02:50:02;;;;;;;2.00;1.10;;;17.60;57.40;;;;;;5050689;28;20249;-60
2022/05/25 02:52:33;;;;;;;1.90;1.10;;;17.70;57.40;;;;;;5050869;28;20241;-59
2022/05/25 02:55:04;;;;;;;1.45;1.00;;;17.70;57.40;;;;;;5050907;28;20224;-60
2022/05/25 02:57:34;;;;;;;1.90;1.20;;;17.70;57.30;;;;;;5051773;28;20226;-60
2022/05/25 03:00:06;;;;;;;1.50;1.13;;;17.70;57.20;;;;;;5050561;28;20191;-60
2022/05/25 03:02:36;;;;;;;1.23;1.08;;;17.80;57.20;;;;;;5051467;28;20608;-60
2022/05/25 03:05:12;;;;;;;1.83;1.13;;;17.80;57.20;;;;;;5050475;28;20221;-60
2022/05/25 03:07:42;;;;;;;1.52;1.13;;;17.80;57.20;;;;;;5051048;28;20195;-60
2022/05/25 03:10:13;;;;;;;1.75;1.13;;;17.80;57.20;;;;;;5050361;28;20281;-60
2022/05/25 03:12:44;;;;;;;1.67;1.25;;;17.80;57.20;;;;;;5046041;28;20238;-60
2022/05/25 03:15:15;;;;;;;2.63;1.10;;;17.90;57.20;;;;;;5050401;28;20258;-60
2022/05/25 03:17:45;;;;;;;1.73;1.15;;;17.90;57.10;;;;;;5051383;28;20234;-59
2022/05/25 03:20:18;;;;;;;1.63;1.23;;;17.90;57.10;;;;;;5048140;28;20199;-60
2022/05/25 03:22:49;;;;;;;1.60;1.10;;;17.90;57.10;;;;;;5050889;28;20191;-60
2022/05/25 03:25:20;;;;;;;2.25;1.25;;;17.90;57.00;;;;;;5050730;28;20250;-60
2022/05/25 03:27:50;;;;;;;3.22;1.17;;;17.90;57.00;;;;;;5051159;28;20191;-60
2022/05/25 03:30:22;;;;;;;2.75;1.25;;;18.00;57.10;;;;;;5050485;28;20192;-61
2022/05/25 03:32:52;;;;;;;2.03;1.38;;;18.00;57.10;;;;;;5050500;28;20199;-59
2022/05/25 03:35:25;;;;;;;1.60;1.08;;;18.00;57.10;;;;;;5048099;28;20227;-60
2022/05/25 03:37:55;;;;;;;1.52;1.30;;;18.00;57.00;;;;;;5050370;28;20192;-61
2022/05/25 03:40:26;;;;;;;1.40;1.30;;;18.00;57.00;;;;;;5051159;28;20242;-59
2022/05/25 03:42:57;;;;;;;3.47;1.88;;;18.00;57.00;;;;;;5050219;28;20223;-60
2022/05/25 03:45:28;;;;;;;2.35;1.52;;;18.00;57.00;;;;;;5050351;28;20200;-60
2022/05/25 03:47:59;;;;;;;2.38;1.30;;;18.00;57.00;;;;;;5045693;28;20203;-60
2022/05/25 03:50:31;;;;;;;2.65;1.20;;;18.00;57.00;;;;;;5049054;28;20253;-60
2022/05/25 03:53:02;;;;;;;1.42;1.20;;;18.10;57.10;;;;;;5050190;28;20250;-60
2022/05/25 03:55:32;;;;;;;2.28;1.48;;;18.00;57.00;;;;;;5050248;28;20259;-60
2022/05/25 03:58:03;;;;;;;1.60;1.50;;;18.00;57.00;;;;;;5049899;28;20199;-60
2022/05/25 04:00:34;;;;;;;1.85;1.50;;;18.00;57.00;;;;;;5050017;28;20195;-60
2022/05/25 04:03:05;;;;;;;2.08;1.48;;;18.00;57.00;;;;;;5049795;28;20223;-61
2022/05/25 04:05:37;;;;;;;2.65;1.45;;;18.00;57.00;;;;;;5049902;28;20203;-60
2022/05/25 04:08:08;;;;;;;2.25;1.50;;;18.00;56.90;;;;;;5049376;28;20192;-61
2022/05/25 04:10:39;;;;;;;2.53;1.55;;;18.00;57.50;;;;;;5049269;28;20204;-61
2022/05/25 04:13:10;;;;;;;2.05;1.40;;;18.00;56.90;;;;;;5050292;28;20214;-60
2022/05/25 04:15:40;;;;;;;2.75;1.42;;;18.00;56.90;;;;;;5049906;28;20247;-59
2022/05/25 04:18:11;;;;;;;2.58;1.50;;;18.10;56.90;;;;;;5049844;28;20253;-60
2022/05/25 04:20:43;;;;;;;3.13;1.50;;;18.00;56.80;;;;;;5050053;28;20188;-60
2022/05/25 04:23:14;;;;;;;1.75;1.25;;;18.00;56.90;;;;;;5047523;28;20215;-60
2022/05/25 04:25:45;;;;;;;1.50;1.33;;;18.00;56.90;;;;;;5049546;28;20249;-60
2022/05/25 04:28:15;;;;;;;2.47;1.52;;;18.00;56.90;;;;;;5049546;28;20231;-59
2022/05/25 04:30:46;;;;;;;1.73;1.30;;;18.00;56.90;;;;;;5049069;28;20203;-60
2022/05/25 04:33:20;;;;;;;2.13;1.58;;;18.00;56.90;;;;;;5049290;28;20257;-59
2022/05/25 04:35:52;;;;;;;2.92;1.58;;;18.00;56.90;;;;;;5048944;28;20258;-59
2022/05/25 04:38:23;;;;;;;1.92;1.63;;;18.00;56.80;;;;;;5049149;28;20257;-58
2022/05/25 04:40:53;;;;;;;2.30;1.48;;;18.00;56.80;;;;;;5048345;28;20257;-59
2022/05/25 04:43:26;;;;;;;1.80;1.35;;;18.00;56.70;;;;;;5049527;28;20243;-60
2022/05/25 04:45:59;;;;;;;2.35;1.70;;;18.10;56.80;;;;;;5049814;28;20206;-59
2022/05/25 04:48:30;;;;;;;1.83;1.60;;;18.00;56.70;;;;;;5048963;28;20191;-58
2022/05/25 04:51:02;;;;;;;2.60;1.88;;;18.00;56.70;;;;;;5049078;28;20604;-59
2022/05/25 04:53:33;;;;;;;3.17;2.10;;;18.00;56.70;;;;;;5049667;28;20582;-58
2022/05/25 04:58:52;;;;;;;3.03;1.92;;;18.00;56.70;;;;;;5048119;28;20333;-58
2022/05/25 05:01:23;;;;;;;3.08;2.10;;;18.00;56.70;;;;;;5048707;28;20223;-61
2022/05/25 05:03:53;;;;;;;3.80;1.98;;;18.00;56.60;;;;;;5048417;28;20208;-59
2022/05/25 05:06:26;;;;;;;6.10;2.55;;;18.00;56.70;;;;;;5048980;28;20250;-60
2022/05/25 05:08:56;;;;;;;3.47;2.13;;;18.00;56.70;;;;;;5048057;28;20203;-60
2022/05/25 05:11:27;;;;;;;3.08;2.08;;;18.00;56.70;;;;;;5046971;28;20223;-59
2022/05/25 05:13:57;;;;;;;2.90;2.15;;;18.00;56.70;;;;;;5048700;28;20216;-59
2022/05/25 05:16:28;;;;;;;3.53;2.15;;;18.00;56.70;;;;;;5049401;28;20854;-59
2022/05/25 05:18:59;;;;;;;3.55;1.83;;;18.00;56.70;;;;;;5049090;28;20721;-59
2022/05/25 05:21:31;;;;;;;3.30;2.13;;;18.00;56.70;;;;;;5048826;28;20678;-59
2022/05/25 05:24:02;;;;;;;3.65;2.30;;;18.00;56.70;;;;;;5049014;28;20215;-58
2022/05/25 05:26:32;;;;;;;2.20;1.98;;;18.00;56.70;;;;;;5049053;28;20191;-58
2022/05/25 05:29:03;;;;;;;3.20;2.20;;;18.00;56.70;;;;;;5048902;28;20293;-61
2022/05/25 05:31:34;;;;;;;3.55;2.13;;;18.00;56.70;;;;;;5048947;28;20231;-58
2022/05/25 05:34:04;;;;;;;5.47;2.30;;;17.90;56.70;;;;;;5048645;28;20212;-59
2022/05/25 05:36:42;;;;;;;4.35;2.72;;;17.90;56.80;;;;;;5049035;28;20234;-59
2022/05/25 05:39:14;;;;;;;3.85;2.38;;;17.90;56.80;;;;;;5046506;28;20195;-58
2022/05/25 05:41:48;;;;;;;2.50;2.00;;;17.90;56.70;;;;;;5048954;28;20218;-57
2022/05/25 05:44:21;;;;;;;5.50;2.60;;;17.90;56.70;;;;;;5048812;28;20329;-57
2022/05/25 05:46:54;;;;;;;5.18;2.70;;;17.90;56.70;;;;;;5048462;28;20196;-57
2022/05/25 05:49:24;;;;;;;4.97;2.97;;;17.90;56.70;;;;;;5048656;28;20249;-58
2022/05/25 05:51:58;;;;;;;3.88;2.78;;;17.90;56.80;;;;;;5043405;28;20192;-58
2022/05/25 05:54:28;;;;;;;4.18;2.63;;;17.90;56.90;;;;;;5043391;28;20587;-59
2022/05/25 05:56:59;;;;;;;3.45;2.78;;;17.90;56.80;;;;;;5044902;28;20284;-63
2022/05/25 05:59:30;;;;;;;5.03;2.70;;;17.90;56.80;;;;;;5044254;28;20203;-60
2022/05/25 06:02:00;;;;;;;4.15;2.67;;;17.90;56.80;;;;;;5044875;28;20554;-60
2022/05/25 06:04:31;;;;;;;4.30;2.70;;;17.90;56.90;;;;;;5043969;28;20208;-58
2022/05/25 06:07:04;;;;;;;4.47;2.80;;;17.90;56.80;;;;;;5045249;28;20581;-60
2022/05/25 06:09:35;;;;;;;3.58;2.60;;;17.90;56.80;;;;;;5042262;28;20187;-60
2022/05/25 06:12:06;;;;;;;7.20;3.35;;;17.90;56.80;;;;;;5044072;28;20195;-59
2022/05/25 06:14:36;;;;;;;4.20;2.85;;;17.90;56.80;;;;;;5041785;28;20219;-56
2022/05/25 06:19:53;;;;;;;4.18;2.63;;;17.90;56.80;;;;;;5044711;28;20561;-57
2022/05/25 06:22:27;;;;;;;4.00;2.72;;;17.80;56.70;;;;;;5045606;28;20245;-57
2022/05/25 06:24:58;;;;;;;5.82;3.00;;;17.80;56.70;;;;;;5048371;28;20672;-58
2022/05/25 06:27:28;;;;;;;4.53;3.03;;;17.80;56.70;;;;;;5047061;28;20238;-59
2022/05/25 06:29:59;;;;;;;4.75;3.13;;;17.80;56.70;;;;;;5047843;28;20227;-58
2022/05/25 06:32:29;;;;;;;5.57;3.15;;;17.80;56.70;;;;;;5046187;28;20245;-60
2022/05/25 06:35:00;;;;;;;5.40;3.03;;;17.80;56.60;;;;;;5047658;28;20378;-57
2022/05/25 06:37:32;;;;;;;5.03;3.00;;;17.70;56.60;;;;;;5048118;28;20229;-56
2022/05/25 06:40:04;;;;;;;4.55;2.85;;;17.80;56.70;;;;;;5050278;28;20777;-57
2022/05/25 06:42:37;;;;;;;3.90;2.72;;;17.80;56.70;;;;;;5049025;28;20241;-58
2022/05/25 06:45:08;;;;;;;4.40;2.97;;;17.70;56.70;;;;;;5049777;28;20195;-59
2022/05/25 06:47:38;;;;;;;4.30;2.53;;;17.80;56.80;;;;;;5049376;28;20469;-56
2022/05/25 06:50:10;;;;;;;4.10;3.10;;;17.70;56.80;;;;;;5049997;28;20200;-58
2022/05/25 06:52:42;;;;;;;5.10;2.92;;;17.70;56.70;;;;;;5048976;28;20223;-60
2022/05/25 06:55:13;;;;;;;4.05;2.83;;;17.70;56.80;;;;;;5049795;28;20199;-58
2022/05/25 06:57:44;;;;;;;4.03;2.67;;;17.70;56.70;;;;;;5049480;28;20251;-58
2022/05/25 07:00:15;;;;;;;4.82;3.08;;;17.70;56.80;;;;;;5049115;28;20195;-57
2022/05/25 07:02:45;;;;;;;4.32;2.75;;;17.70;56.80;;;;;;5049224;28;20253;-57
2022/05/25 07:05:16;;;;;;;4.72;2.63;;;17.70;56.70;;;;;;5049697;28;20245;-56
2022/05/25 07:07:49;;;;;;;4.38;2.83;;;17.70;56.80;;;;;;5048034;28;20287;-57
2022/05/25 07:10:20;;;;;;;4.60;2.85;;;17.70;56.80;;;;;;5049043;28;20187;-54
2022/05/25 07:12:50;;;;;;;6.25;3.10;;;17.70;56.80;;;;;;5046589;28;20192;-57
2022/05/25 07:15:21;;;;;;;5.30;3.13;;;17.60;56.70;;;;;;5046939;28;20191;-58
2022/05/25 07:17:51;;;;;;;6.43;3.58;;;17.60;56.70;;;;;;5046851;28;20219;-56
2022/05/25 07:20:22;;;;;;;6.10;3.45;;;17.60;56.70;;;;;;5046242;28;20261;-56
2022/05/25 07:22:54;;;;;;;6.05;3.22;;;17.60;56.70;;;;;;5048631;28;20261;-57
2022/05/25 07:25:25;;;;;;;5.68;3.78;;;17.60;56.60;;;;;;5047791;28;20195;-58
2022/05/25 07:27:56;;;;;;;6.82;3.53;;;17.60;56.70;;;;;;5048511;28;20199;-56
2022/05/25 07:30:28;;;;;;;6.40;3.38;;;17.60;56.70;;;;;;5045139;28;20273;-57
2022/05/25 07:33:00;;;;;;;5.22;3.33;;;17.50;56.60;;;;;;5046616;28;20194;-56
2022/05/25 07:35:31;;;;;;;5.75;3.60;;;17.50;56.60;;;;;;5047257;28;20199;-59
2022/05/25 07:38:03;;;;;;;4.85;3.28;;;17.50;56.60;;;;;;5047813;28;20259;-59
2022/05/25 07:40:38;;;;;;;6.68;3.50;;;17.50;56.60;;;;;;5047342;28;20210;-56
2022/05/25 07:43:12;;;;;;;6.38;3.40;;;17.50;56.60;;;;;;5037623;28;20243;-57
2022/05/25 07:45:43;;;;;;;7.75;4.07;;;17.50;56.60;;;;;;5013076;28;20197;-58
2022/05/25 07:48:13;;;;;;;6.32;3.95;;;17.50;56.60;;;;;;5013196;28;20255;-58
2022/05/25 07:50:45;;;;;;;7.68;4.28;;;17.50;56.60;;;;;;5013669;28;20193;-58
2022/05/25 07:56:05;;;;;;;5.88;3.80;;;17.50;57.30;;;;;;5013503;28;20259;-57
2022/05/25 07:58:36;;;;;;;5.25;3.60;;;17.50;57.10;;;;;;5017166;28;20664;-59
2022/05/25 08:01:12;;;;;;;6.47;3.33;;;17.50;57.10;;;;;;5033479;28;20242;-59
2022/05/25 08:06:30;;;;;;;5.65;3.45;;;17.50;57.00;;;;;;5033000;28;20196;-59
2022/05/25 08:09:02;;;;;;;5.78;3.92;;;17.40;57.00;;;;;;5033050;28;20203;-58
2022/05/25 08:11:35;;;;;;;6.63;4.00;;;17.40;57.00;;;;;;5032915;28;20561;-58
2022/05/25 08:14:06;;;;;;;7.65;4.47;;;17.40;57.00;;;;;;5032586;28;20224;-57
2022/05/25 08:16:37;;;;;;;12.23;5.43;;;17.40;57.00;;;;;;5033377;28;20297;-60
2022/05/25 08:19:07;;;;;;;12.10;5.63;;;17.40;56.60;;;;;;5032963;28;20192;-58
2022/05/25 08:21:38;;;;;;;13.48;5.38;;;17.40;56.40;;;;;;5032756;28;20719;-59
2022/05/25 08:24:10;;;;;;;12.45;5.30;;;17.40;56.30;;;;;;5032661;28;20640;-58
2022/05/25 08:26:41;;;;;;;12.48;5.15;;;17.40;56.20;;;;;;5032557;28;20230;-58
2022/05/25 08:29:11;;;;;;;10.43;5.10;;;17.30;56.70;;;;;;5032017;28;20203;-59
2022/05/25 08:31:42;;;;;;;12.50;5.00;;;17.30;56.10;;;;;;5032721;28;20203;-59
2022/05/25 08:34:13;;;;;;;14.50;4.93;;;17.30;56.00;;;;;;5032237;28;20258;-59
2022/05/25 08:36:43;;;;;;;12.18;5.10;;;17.30;56.00;;;;;;5032618;28;20220;-59
2022/05/25 08:39:16;;;;;;;13.35;5.03;;;17.30;56.10;;;;;;5032965;28;20200;-59
2022/05/25 08:41:49;;;;;;;12.18;4.80;;;17.30;56.10;;;;;;5032569;28;20196;-59
2022/05/25 08:44:23;;;;;;;10.55;5.28;;;17.30;56.10;;;;;;5031490;28;20248;-59
2022/05/25 08:46:56;;;;;;;9.75;5.03;;;17.30;56.10;;;;;;5032450;28;20200;-60
2022/05/25 08:49:28;;;;;;;13.10;5.20;;;17.30;56.10;;;;;;5032261;28;20227;-58
2022/05/25 08:52:01;;;;;;;12.98;5.10;;;17.30;56.10;;;;;;5031863;28;20254;-58
2022/05/25 08:54:36;;;;;;;11.63;4.60;;;17.20;56.10;;;;;;5031910;28;20275;-58
2022/05/25 08:57:14;;;;;;;10.68;4.50;;;17.20;56.10;;;;;;5032254;28;20281;-58
2022/05/25 08:59:52;;;;;;;15.98;4.68;;;17.20;56.20;;;;;;5032300;28;20246;-59
2022/05/25 09:02:30;;;;;;;8.02;4.32;;;17.20;56.20;;;;;;5032127;28;20200;-59
2022/05/25 09:05:06;;;;;;;8.73;4.53;;;17.20;56.30;;;;;;5032129;28;20271;-58
2022/05/25 09:07:48;;;;;;;11.10;4.75;;;17.20;56.30;;;;;;5032350;28;20196;-59
2022/05/25 09:10:23;;;;;;;7.90;4.60;;;17.20;56.30;;;;;;5032090;28;20262;-59
2022/05/25 09:12:59;;;;;;;11.00;4.88;;;17.20;56.30;;;;;;5030142;28;20199;-59
2022/05/25 09:15:32;;;;;;;8.95;4.18;;;17.20;56.60;;;;;;5030852;28;20212;-55
2022/05/25 09:18:07;;;;;;;10.60;4.30;;;17.20;57.30;;;;;;5030432;28;20264;-57
2022/05/25 09:20:44;;;;;;;8.85;4.43;;;17.20;56.70;;;;;;5031843;28;20624;-53
2022/05/25 09:23:15;;;;;;;7.90;3.90;;;17.20;56.60;;;;;;5025437;28;20223;-58
2022/05/25 09:25:51;;;;;;;9.93;4.50;;;17.20;56.60;;;;;;5045704;28;20222;-58
2022/05/25 09:28:23;;;;;;;6.20;3.67;;;17.20;56.70;;;;;;5045108;28;20199;-59
2022/05/25 09:30:57;;;;;;;8.55;4.35;;;17.20;57.00;;;;;;5045135;28;20721;-59
2022/05/25 09:33:35;;;;;;;10.73;4.47;;;17.10;57.00;;;;;;5044079;28;20628;-59
2022/05/25 09:36:10;;;;;;;6.50;3.80;;;17.10;57.00;;;;;;5045061;28;20659;-59
2022/05/25 09:38:46;;;;;;;8.10;3.97;;;17.10;56.90;;;;;;5044020;28;20222;-58
2022/05/25 09:41:24;;;;;;;9.15;4.00;;;17.10;56.90;;;;;;5045187;28;20241;-58
2022/05/25 09:43:57;;;;;;;6.15;3.85;;;17.10;56.90;;;;;;5045278;28;20796;-59
2022/05/25 09:46:31;;;;;;;8.82;4.15;;;17.10;56.90;;;;;;5043431;28;20192;-57
2022/05/25 09:49:04;;;;;;;8.13;3.80;;;17.10;56.90;;;;;;5044626;28;20198;-57
2022/05/25 09:51:38;;;;;;;6.93;3.92;;;17.10;56.90;;;;;;5043868;28;20199;-60
2022/05/25 09:54:14;;;;;;;7.85;4.50;;;17.10;56.90;;;;;;5045061;28;20749;-58
2022/05/25 09:56:48;;;;;;;7.65;4.03;;;17.10;56.80;;;;;;5043697;28;20199;-58
2022/05/25 09:59:27;;;;;;;6.00;3.70;;;17.10;56.80;;;;;;5043878;28;20234;-58
2022/05/25 10:01:58;;;;;;;10.52;4.93;;;17.00;56.80;;;;;;5044341;28;20191;-58
2022/05/25 10:04:51;;;;;;;7.30;3.75;;;17.10;56.80;;;;;;5043318;28;20215;-57
2022/05/25 10:07:27;;;;;;;5.55;3.60;;;17.10;56.80;;;;;;5044154;28;20272;-59
2022/05/25 10:10:03;;;;;;;7.63;4.13;;;17.10;56.80;;;;;;5040652;28;20644;-60
2022/05/25 10:12:44;;;;;;;6.53;3.92;;;17.00;56.70;;;;;;5043614;28;20191;-59
2022/05/25 10:15:16;;;;;;;6.85;4.07;;;17.00;56.80;;;;;;5040328;28;20245;-59
2022/05/25 10:17:48;;;;;;;6.38;3.88;;;17.00;56.80;;;;;;5041850;28;20280;-59
2022/05/25 10:20:27;;;;;;;7.15;3.80;;;17.00;56.80;;;;;;5043827;28;20203;-58
2022/05/25 10:23:08;;;;;;;6.63;4.07;;;17.00;56.70;;;;;;5045613;28;20200;-59
2022/05/25 10:25:43;;;;;;;7.15;3.50;;;17.00;56.70;;;;;;5044993;28;20230;-59
2022/05/25 10:28:24;;;;;;;8.85;3.45;;;17.00;56.80;;;;;;5045987;28;20193;-59
2022/05/25 10:36:56;;;;;;;5.82;3.40;;;16.90;56.70;;;;;;5046330;28;20203;-58
2022/05/25 10:39:35;;;;;;;6.45;3.65;;;17.00;56.70;;;;;;5045480;28;20290;-57
2022/05/25 10:42:12;;;;;;;7.82;3.88;;;16.90;56.70;;;;;;5046507;28;20203;-56
2022/05/25 10:44:54;;;;;;;6.45;3.38;;;16.90;56.70;;;;;;5044531;28;20242;-55
2022/05/25 10:47:54;;;;;;;7.20;3.33;;;16.90;56.70;;;;;;5044992;28;20199;-55
2022/05/25 10:50:30;;;;;;;4.95;3.10;;;16.90;56.70;;;;;;5045108;28;20242;-58
2022/05/25 10:53:07;;;;;;;6.53;3.33;;;16.90;56.70;;;;;;5045527;28;20199;-58
2022/05/25 10:55:42;;;;;;;6.35;3.28;;;16.90;56.70;;;;;;5041957;28;20205;-56
2022/05/25 10:58:31;;;;;;;5.82;3.17;;;16.90;56.70;;;;;;5045556;28;20313;-58
2022/05/25 11:01:17;;;;;;;5.63;3.30;;;16.90;56.70;;;;;;5045153;28;20191;-57
2022/05/25 11:04:24;;;;;;;6.40;3.63;;;16.90;56.70;;;;;;5045615;28;20955;-60
2022/05/25 11:07:19;;;;;;;4.90;3.00;;;16.80;56.60;;;;;;5042932;28;20199;-59
2022/05/25 11:10:13;;;;;;;5.65;3.08;;;16.80;56.60;;;;;;5014791;28;20243;-56
2022/05/25 11:12:55;;;;;;;5.45;2.90;;;16.80;56.60;;;;;;5013694;28;20255;-58
2022/05/25 11:15:34;;;;;;;4.75;3.00;;;16.80;56.60;;;;;;5012603;28;20197;-57
2022/05/25 11:18:33;;;;;;;6.55;3.63;;;16.80;56.70;;;;;;5012483;28;20592;-57
2022/05/25 11:21:17;;;;;;;6.90;3.42;;;16.80;56.70;;;;;;5012611;28;20251;-59
2022/05/25 11:24:07;;;;;;;5.05;2.75;;;16.80;56.70;;;;;;5024474;28;20216;-55
2022/05/25 11:26:53;;;;;;;5.70;3.05;;;16.80;56.70;;;;;;5032837;28;20192;-59
2022/05/25 11:29:43;;;;;;;5.00;3.15;;;16.80;56.70;;;;;;5032562;28;20232;-58
2022/05/25 11:32:25;;;;;;;6.32;3.45;;;16.80;56.70;;;;;;5023611;28;20715;-56
2022/05/25 11:35:21;;;;;;;5.70;3.30;;;16.70;56.70;;;;;;5012920;28;20217;-58
2022/05/25 11:38:04;;;;;;;6.13;3.38;;;16.70;56.70;;;;;;5015292;28;20220;-59
2022/05/25 11:40:45;;;;;;;6.05;2.95;;;16.70;56.70;;;;;;5031869;28;20294;-59
2022/05/25 11:44:00;;;;;;;5.40;2.92;;;16.70;56.70;;;;;;5031892;28;20212;-57
2022/05/25 11:46:39;;;;;;;5.18;2.83;;;16.70;56.70;;;;;;5027396;28;20201;-57
2022/05/25 11:49:37;;;;;;;5.78;3.10;;;16.70;56.70;;;;;;5031648;28;20204;-55
2022/05/25 11:52:32;;;;;;;5.78;2.95;;;16.70;56.70;;;;;;5003242;28;20254;-57
2022/05/25 11:55:13;;;;;;;4.80;2.75;;;16.60;56.70;;;;;;5031826;28;20220;-60
2022/05/25 11:57:47;;;;;;;7.10;3.22;;;16.70;56.70;;;;;;5031902;28;20231;-59
2022/05/25 12:00:29;;;;;;;4.95;2.78;;;16.60;56.70;;;;;;5031544;28;20200;-59
2022/05/25 12:03:35;;;;;;;6.50;3.13;;;16.60;56.70;;;;;;5031658;28;20192;-58
2022/05/25 12:06:19;;;;;;;4.25;2.83;;;16.60;56.90;;;;;;5031476;28;20196;-57
2022/05/25 12:09:07;;;;;;;4.35;2.95;;;16.60;56.70;;;;;;5031265;28;20660;-56
2022/05/25 12:11:44;;;;;;;4.47;2.95;;;16.60;56.70;;;;;;5031181;28;20203;-57
2022/05/25 12:14:46;;;;;;;4.55;2.92;;;16.60;56.70;;;;;;5030872;28;20299;-59
2022/05/25 12:17:30;;;;;;;6.82;2.92;;;16.60;56.70;;;;;;5030744;28;20496;-57
2022/05/25 12:20:03;;;;;;;4.40;2.92;;;16.60;56.80;;;;;;5030932;28;20261;-60
2022/05/25 12:22:36;;;;;;;4.60;2.83;;;16.60;56.70;;;;;;5031244;28;20203;-60
2022/05/25 12:25:11;;;;;;;6.00;2.88;;;16.50;56.70;;;;;;5031032;28;20278;-57
2022/05/25 12:27:45;;;;;;;4.82;2.70;;;16.50;56.70;;;;;;5030869;28;20660;-58
2022/05/25 12:30:20;;;;;;;4.85;2.67;;;16.50;56.80;;;;;;5031082;28;20219;-58
2022/05/25 12:32:53;;;;;;;6.25;3.30;;;16.50;56.80;;;;;;5031265;28;20241;-59
2022/05/25 12:35:25;;;;;;;5.75;2.90;;;16.50;56.80;;;;;;5031362;28;20200;-58
2022/05/25 12:37:55;;;;;;;4.50;2.75;;;16.50;56.80;;;;;;5030547;28;20304;-55
2022/05/25 12:40:51;;;;;;;5.07;3.15;;;16.50;56.80;;;;;;5031055;28;20199;-54
2022/05/25 12:43:53;;;;;;;4.18;2.42;;;16.50;56.80;;;;;;5030650;28;20278;-57
2022/05/25 12:49:37;;;;;;;5.68;2.90;;;16.50;56.80;;;;;;5030877;28;20207;-54
2022/05/25 12:52:39;;;;;;;4.07;2.63;;;16.50;56.80;;;;;;5030732;28;20200;-56
2022/05/25 12:55:22;;;;;;;3.83;2.58;;;16.40;56.70;;;;;;5021388;28;20265;-57
2022/05/25 12:57:57;;;;;;;3.70;2.70;;;16.50;56.80;;;;;;5031167;28;20403;-57
2022/05/25 13:00:39;;;;;;;5.40;2.58;;;16.40;56.70;;;;;;5030580;28;20643;-57
2022/05/25 13:03:37;;;;;;;4.70;2.75;;;16.40;56.80;;;;;;5030292;28;20216;-54
2022/05/25 13:06:08;;;;;;;3.60;2.40;;;16.40;56.80;;;;;;5030264;28;20206;-58
2022/05/25 13:09:09;;;;;;;3.50;2.50;;;16.40;56.80;;;;;;5030092;28;20192;-59
2022/05/25 13:11:48;;;;;;;4.05;2.50;;;16.40;56.80;;;;;;5030517;28;20563;-59
2022/05/25 13:14:58;;;;;;;3.90;2.60;;;16.40;56.80;;;;;;5029666;28;20212;-59
2022/05/25 13:17:49;;;;;;;4.50;2.53;;;16.40;56.80;;;;;;5030434;28;20283;-59
2022/05/25 13:21:09;;;;;;;3.95;2.60;;;16.40;56.80;;;;;;5030344;28;20208;-60
2022/05/25 13:24:14;;;;;;;4.55;2.38;;;16.30;56.80;;;;;;4952726;28;20245;-59
2022/05/25 13:26:54;;;;;;;5.63;2.55;;;16.30;56.70;;;;;;5030532;28;20222;-59
2022/05/25 13:29:32;;;;;;;3.88;2.38;;;16.30;56.80;;;;;;5017856;28;20846;-59
2022/05/25 13:32:08;;;;;;;4.80;2.65;;;16.30;56.80;;;;;;5009573;28;20201;-58
2022/05/25 13:34:39;;;;;;;3.55;2.17;;;16.30;56.80;;;;;;5010395;28;20573;-58
2022/05/25 13:37:14;;;;;;;3.80;2.30;;;16.30;56.80;;;;;;5009815;28;20271;-56
2022/05/25 13:39:46;;;;;;;4.65;2.88;;;16.30;56.80;;;;;;5021815;28;20224;-58
2022/05/25 13:42:19;;;;;;;3.80;2.33;;;16.30;56.80;;;;;;5029592;28;20631;-58
2022/05/25 13:44:52;;;;;;;3.58;2.40;;;16.30;56.80;;;;;;5029908;28;20224;-58
2022/05/25 13:47:25;;;;;;;4.10;2.45;;;16.30;56.80;;;;;;5029667;28;20196;-59
2022/05/25 13:49:58;;;;;;;4.20;2.40;;;16.30;56.80;;;;;;5029686;28;20200;-54
2022/05/25 13:52:30;;;;;;;4.15;2.70;;;16.30;56.80;;;;;;5030066;28;20199;-58